Aviation Digital Data Service (ADDS)

Output produced by METARs form (0603 UTC 05 July 2015)
found at http://aviationweather.gov/adds/metars/
 
KFDY 050525Z 0506/0606 VRB02KT P6SM BKN250 
     FM051600 14005KT P6SM BKN250